createdAt,value
2022-10-17T04:26:44.764Z,1.15
2022-10-17T04:29:14.136Z,0.98
2022-10-17T04:31:43.290Z,1.30
2022-10-17T04:34:14.908Z,0.98
2022-10-17T04:36:44.045Z,1.35
2022-10-17T04:41:44.873Z,1.25
2022-10-17T04:44:14.476Z,1.30
2022-10-17T04:46:45.436Z,1.25
2022-10-17T04:49:21.048Z,1.33
2022-10-17T04:51:49.988Z,0.88
2022-10-17T04:54:19.181Z,0.38
2022-10-17T04:56:49.914Z,1.25
2022-10-17T04:59:19.087Z,0.50
2022-10-17T05:01:50.192Z,1.20
2022-10-17T05:04:22.345Z,0.85
2022-10-17T05:06:54.080Z,1.27
2022-10-17T05:09:23.196Z,1.00
2022-10-17T05:11:53.589Z,1.40
2022-10-17T05:14:23.096Z,0.88
2022-10-17T05:16:52.105Z,0.85
2022-10-17T05:19:21.283Z,1.42
2022-10-17T05:21:50.382Z,0.88
2022-10-17T05:24:19.668Z,1.15
2022-10-17T05:26:51.345Z,1.02
2022-10-17T05:29:21.801Z,1.55
2022-10-17T05:31:50.900Z,1.33
2022-10-17T05:34:19.885Z,1.13
2022-10-17T05:36:52.072Z,0.85
2022-10-17T05:39:21.612Z,1.17
2022-10-17T05:41:51.518Z,1.50
2022-10-17T05:44:22.215Z,1.20
2022-10-17T05:46:52.162Z,0.95
2022-10-17T05:49:33.377Z,0.80
2022-10-17T05:52:13.451Z,1.00
2022-10-17T05:54:44.063Z,0.70
2022-10-17T05:57:13.739Z,1.08
2022-10-17T05:59:44.200Z,1.30
2022-10-17T06:02:32.588Z,0.80
2022-10-17T06:05:04.508Z,0.70
2022-10-17T06:07:33.561Z,0.82
2022-10-17T06:10:02.661Z,1.15
2022-10-17T06:12:31.903Z,0.70
2022-10-17T06:15:02.636Z,1.05
2022-10-17T06:17:31.785Z,0.75
2022-10-17T06:20:00.814Z,0.93
2022-10-17T06:22:30.172Z,0.80
2022-10-17T06:25:02.443Z,1.00
2022-10-17T06:27:31.509Z,0.73
2022-10-17T06:30:02.099Z,0.60
2022-10-17T06:32:31.484Z,0.80
2022-10-17T06:35:01.023Z,0.77
2022-10-17T06:37:36.508Z,0.60
2022-10-17T06:40:08.590Z,0.73
2022-10-17T06:42:37.822Z,0.98
2022-10-17T06:45:10.695Z,0.88
2022-10-17T06:47:39.890Z,0.60
2022-10-17T06:50:10.528Z,0.80
2022-10-17T06:52:39.659Z,0.93
2022-10-17T06:55:10.066Z,0.93
2022-10-17T06:57:39.080Z,0.80
2022-10-17T07:00:11.447Z,0.85
2022-10-17T07:02:40.556Z,0.80
2022-10-17T07:05:10.301Z,0.80
2022-10-17T07:07:43.041Z,0.73
2022-10-17T07:10:14.055Z,0.93
2022-10-17T07:12:45.763Z,0.47
2022-10-17T07:15:16.286Z,0.70
2022-10-17T07:17:45.389Z,0.70
2022-10-17T07:20:14.963Z,0.90
2022-10-17T07:22:44.046Z,0.60
2022-10-17T07:25:13.349Z,0.50
2022-10-17T07:27:42.394Z,0.70
2022-10-17T07:30:13.193Z,0.43
2022-10-17T07:32:46.056Z,1.20
2022-10-17T07:35:19.024Z,0.90
2022-10-17T07:37:48.069Z,1.10
2022-10-17T07:40:17.284Z,0.73
2022-10-17T07:42:46.720Z,1.00
2022-10-17T07:45:15.920Z,1.02
2022-10-17T07:47:46.503Z,0.60
2022-10-17T07:50:15.592Z,0.90
2022-10-17T07:52:44.798Z,0.80
2022-10-17T07:55:13.915Z,0.80
2022-10-17T07:57:43.049Z,1.00
2022-10-17T08:00:13.300Z,0.60
2022-10-17T08:02:42.501Z,0.95
2022-10-17T08:05:13.149Z,0.75
2022-10-17T08:07:42.222Z,0.80
2022-10-17T08:10:14.009Z,1.30
2022-10-17T08:12:43.594Z,0.82
2022-10-17T08:15:13.310Z,1.10
2022-10-17T08:17:42.246Z,0.95
2022-10-17T08:20:14.268Z,0.73
2022-10-17T08:22:43.447Z,1.05
2022-10-17T08:25:12.916Z,0.77
2022-10-17T08:27:42.512Z,0.93
2022-10-17T08:30:13.091Z,1.42
2022-10-17T08:32:42.444Z,0.80
2022-10-17T08:35:14.844Z,0.73
2022-10-17T08:37:43.753Z,1.23
2022-10-17T08:40:23.047Z,1.15
2022-10-17T08:43:18.843Z,1.30
2022-10-17T08:45:54.786Z,1.13
2022-10-17T08:48:28.661Z,1.10
2022-10-17T08:51:07.440Z,0.82
2022-10-17T08:53:43.162Z,1.15
2022-10-17T08:56:25.070Z,0.85
2022-10-17T08:59:15.161Z,1.27
2022-10-17T09:01:52.561Z,1.10
2022-10-17T09:04:49.340Z,1.40
2022-10-17T09:07:32.341Z,0.98
2022-10-17T09:10:16.038Z,1.20
2022-10-17T09:12:58.547Z,1.40
2022-10-17T09:15:46.771Z,1.42
2022-10-17T09:18:22.502Z,1.27
2022-10-17T09:20:58.383Z,0.80
2022-10-17T09:23:33.533Z,1.33
2022-10-17T09:26:04.393Z,1.35
2022-10-17T09:28:39.715Z,1.17
2022-10-17T09:31:20.448Z,0.93
2022-10-17T09:33:54.882Z,1.45
2022-10-17T09:36:28.898Z,1.10
2022-10-17T09:39:02.783Z,1.13
2022-10-17T09:41:46.774Z,1.30
2022-10-17T09:44:22.068Z,1.27
2022-10-17T09:47:07.742Z,1.20
2022-10-17T09:49:40.536Z,1.20
2022-10-17T09:52:17.948Z,1.30
2022-10-17T09:54:51.364Z,1.83
2022-10-17T09:57:22.889Z,1.52
2022-10-17T10:00:01.179Z,1.48
2022-10-17T10:02:33.651Z,1.70
2022-10-17T10:05:07.315Z,1.75
2022-10-17T10:07:39.856Z,1.60
2022-10-17T10:10:27.912Z,1.95
2022-10-17T10:13:17.746Z,1.25
2022-10-17T10:15:49.666Z,1.50
2022-10-17T10:21:13.995Z,1.20
2022-10-17T10:23:45.066Z,1.50
2022-10-17T10:26:29.937Z,1.20
2022-10-17T10:29:04.115Z,1.40
2022-10-17T10:31:41.051Z,1.23
2022-10-17T10:34:22.909Z,1.50
2022-10-17T10:37:00.671Z,0.93
2022-10-17T10:39:50.328Z,0.95
2022-10-17T10:42:29.269Z,1.20
2022-10-17T10:45:29.302Z,1.30
2022-10-17T10:48:22.548Z,1.10
2022-10-17T10:50:57.651Z,1.55
2022-10-17T10:53:40.183Z,1.20
2022-10-17T10:56:17.352Z,1.10
2022-10-17T10:58:56.959Z,1.30
2022-10-17T11:01:36.628Z,1.38
2022-10-17T11:04:27.671Z,1.17
2022-10-17T11:07:06.850Z,1.50
2022-10-17T11:09:52.733Z,1.17
2022-10-17T11:12:28.969Z,1.10
2022-10-17T11:15:16.043Z,0.80
2022-10-17T11:17:57.253Z,1.05
2022-10-17T11:20:38.213Z,1.52
2022-10-17T11:23:21.701Z,1.10
2022-10-17T11:25:54.953Z,1.63
2022-10-17T11:28:27.065Z,1.08
2022-10-17T11:31:07.070Z,1.08
2022-10-17T11:33:47.891Z,1.17
2022-10-17T11:36:21.071Z,2.00
2022-10-17T11:38:56.209Z,1.67
2022-10-17T11:41:36.088Z,1.00
2022-10-17T11:44:17.131Z,1.38
2022-10-17T11:46:53.239Z,1.27
2022-10-17T11:49:28.598Z,1.08
2022-10-17T11:52:10.041Z,1.10
2022-10-17T11:54:47.287Z,1.30
2022-10-17T11:57:54.078Z,1.52
2022-10-17T12:00:52.880Z,1.50
2022-10-17T12:03:44.145Z,1.27
2022-10-17T12:06:31.992Z,1.33
2022-10-17T12:09:13.417Z,1.90
2022-10-17T12:11:54.414Z,1.70
2022-10-17T12:14:45.889Z,1.30
2022-10-17T12:17:40.908Z,1.48
2022-10-17T12:20:39.767Z,1.30
2022-10-17T12:23:32.183Z,1.40
2022-10-17T12:26:05.230Z,1.30
2022-10-17T12:28:42.368Z,1.38
2022-10-17T12:31:33.421Z,1.85
2022-10-17T12:34:05.512Z,1.58
2022-10-17T12:36:44.686Z,1.63
2022-10-17T12:39:52.967Z,1.90
2022-10-17T12:42:49.974Z,1.63
2022-10-17T12:45:49.920Z,1.52
2022-10-17T12:49:00.861Z,1.40
2022-10-17T12:51:35.821Z,1.70
2022-10-17T12:54:17.711Z,1.42
2022-10-17T12:56:51.384Z,1.42
2022-10-17T12:59:25.671Z,1.30
2022-10-17T13:02:00.531Z,2.00
2022-10-17T13:04:32.335Z,1.52
2022-10-17T13:07:02.042Z,1.70
2022-10-17T13:09:36.867Z,1.60
2022-10-17T13:12:13.698Z,1.05
2022-10-17T13:14:45.046Z,1.80
2022-10-17T13:17:27.748Z,1.40
2022-10-17T13:19:58.130Z,1.67
2022-10-17T13:22:31.337Z,1.75
2022-10-17T13:25:17.347Z,1.20
2022-10-17T13:27:48.346Z,1.13
2022-10-17T13:30:32.048Z,1.67
2022-10-17T13:33:02.081Z,1.30
2022-10-17T13:35:58.762Z,1.88
2022-10-17T13:38:29.933Z,1.65
2022-10-17T13:41:16.854Z,1.30
2022-10-17T13:43:53.085Z,1.00
2022-10-17T13:46:38.969Z,1.00
2022-10-17T13:49:23.172Z,1.77
2022-10-17T13:51:56.932Z,2.08
2022-10-17T13:54:38.529Z,1.90
2022-10-17T13:57:21.696Z,1.80
2022-10-17T13:59:55.235Z,1.88
2022-10-17T14:02:27.819Z,1.77
2022-10-17T14:05:23.112Z,1.75
2022-10-17T14:08:15.058Z,1.48
2022-10-17T14:10:46.727Z,1.50
2022-10-17T14:13:25.129Z,1.65
2022-10-17T14:15:56.521Z,1.33
2022-10-17T14:18:35.986Z,1.42
2022-10-17T14:24:17.817Z,1.42
2022-10-17T14:29:28.643Z,1.17
2022-10-17T14:32:11.243Z,0.88
2022-10-17T14:34:42.688Z,1.42
2022-10-17T14:37:15.230Z,1.27
2022-10-17T14:39:44.547Z,0.80
2022-10-17T14:42:22.323Z,1.35
2022-10-17T14:44:56.283Z,1.58
2022-10-17T14:47:43.560Z,1.02
2022-10-17T14:50:26.652Z,1.33
2022-10-17T14:53:05.530Z,1.60
2022-10-17T14:55:37.353Z,1.05
2022-10-17T14:58:19.506Z,1.60
2022-10-17T15:00:50.157Z,1.58
2022-10-17T15:03:19.653Z,1.38
2022-10-17T15:05:49.637Z,1.17
2022-10-17T15:08:21.927Z,1.63
2022-10-17T15:10:52.979Z,1.20
2022-10-17T15:13:29.493Z,1.55
2022-10-17T15:16:02.098Z,1.27
2022-10-17T15:18:32.624Z,1.73
2022-10-17T15:21:05.332Z,1.40
2022-10-17T15:23:46.937Z,1.70
2022-10-17T15:26:21.303Z,1.48
2022-10-17T15:28:55.097Z,2.00
2022-10-17T15:31:28.246Z,2.53
2022-10-17T15:33:57.301Z,2.42
2022-10-17T15:36:29.308Z,2.63
2022-10-17T15:39:01.753Z,2.85
2022-10-17T15:41:36.104Z,2.10
2022-10-17T15:44:05.256Z,1.80
2022-10-17T15:46:37.486Z,2.13
2022-10-17T15:49:10.148Z,1.95
2022-10-17T15:51:39.761Z,2.58
2022-10-17T15:54:09.436Z,1.63
2022-10-17T15:56:42.394Z,2.80
2022-10-17T15:59:16.419Z,2.08
2022-10-17T16:01:48.968Z,3.13
2022-10-17T16:04:18.961Z,1.70
2022-10-17T16:06:48.091Z,2.60
2022-10-17T16:09:17.519Z,2.00
2022-10-17T16:11:47.658Z,2.15
2022-10-17T16:14:19.718Z,1.98
2022-10-17T16:16:50.172Z,2.15
2022-10-17T16:19:19.397Z,2.78
2022-10-17T16:21:48.515Z,2.15
2022-10-17T16:24:17.982Z,1.85
2022-10-17T16:26:47.348Z,2.05
2022-10-17T16:29:16.562Z,1.90
2022-10-17T16:31:48.525Z,1.70
2022-10-17T16:34:18.082Z,2.10
2022-10-17T16:36:47.225Z,1.60
2022-10-17T16:39:16.609Z,1.30
2022-10-17T16:41:45.930Z,1.65
2022-10-17T16:44:16.759Z,1.20
2022-10-17T16:46:45.884Z,1.05
2022-10-17T16:49:18.412Z,1.42
2022-10-17T16:51:47.617Z,2.35
2022-10-17T16:54:16.715Z,0.90
2022-10-17T16:56:45.795Z,1.70
2022-10-17T16:59:15.311Z,1.63
2022-10-17T17:01:44.337Z,1.73
2022-10-17T17:04:13.861Z,2.13
2022-10-17T17:09:15.004Z,1.50
2022-10-17T17:11:44.317Z,1.30
2022-10-17T17:14:14.629Z,1.63
2022-10-17T17:16:44.292Z,1.08
2022-10-17T17:19:17.275Z,1.40
2022-10-17T17:21:51.160Z,0.82
2022-10-17T17:24:22.326Z,1.35
2022-10-17T17:26:54.373Z,1.63
2022-10-17T17:29:25.292Z,1.00
2022-10-17T17:31:54.555Z,1.15
2022-10-17T17:34:23.574Z,1.15
2022-10-17T17:36:53.951Z,1.75
2022-10-17T17:39:24.153Z,2.05
2022-10-17T17:41:53.226Z,1.23
2022-10-17T17:44:22.313Z,1.48
2022-10-17T17:46:51.505Z,1.58
2022-10-17T17:49:20.524Z,1.25
2022-10-17T17:51:49.740Z,1.42
2022-10-17T17:54:20.339Z,0.70
2022-10-17T17:56:50.446Z,1.27
2022-10-17T17:59:19.504Z,1.52
2022-10-17T18:01:48.616Z,1.27
2022-10-17T18:04:17.908Z,1.58
2022-10-17T18:06:47.238Z,1.42
2022-10-17T18:09:16.309Z,1.75
2022-10-17T18:11:46.804Z,1.20
2022-10-17T18:14:16.277Z,1.73
2022-10-17T18:16:45.645Z,1.65
2022-10-17T18:19:15.128Z,1.48
2022-10-17T18:21:44.534Z,1.73
2022-10-17T18:24:13.776Z,0.70
2022-10-17T18:26:42.912Z,1.85
2022-10-17T18:29:14.055Z,1.40
2022-10-17T18:31:44.064Z,1.55
2022-10-17T18:34:15.047Z,2.10
2022-10-17T18:36:44.341Z,2.28
2022-10-17T18:39:13.512Z,2.40
2022-10-17T18:41:43.159Z,1.98
2022-10-17T18:44:13.987Z,3.42
2022-10-17T18:46:43.316Z,2.80
2022-10-17T18:49:15.438Z,2.83
2022-10-17T18:54:17.067Z,2.22
2022-10-17T18:56:46.279Z,2.78
2022-10-17T18:59:16.957Z,2.20
2022-10-17T19:01:46.233Z,2.30
2022-10-17T19:04:16.147Z,1.98
2022-10-17T19:06:45.250Z,2.40
2022-10-17T19:09:18.921Z,2.88
2022-10-17T19:11:47.948Z,3.00
2022-10-17T19:14:18.638Z,1.92
2022-10-17T19:16:53.087Z,3.00
2022-10-17T19:19:26.874Z,3.35
2022-10-17T19:21:57.625Z,3.00
2022-10-17T19:24:29.945Z,2.78
2022-10-17T19:27:03.563Z,3.53
2022-10-17T19:29:36.345Z,2.55
2022-10-17T19:32:14.130Z,2.65
2022-10-17T19:34:45.937Z,2.00
2022-10-17T19:37:15.045Z,2.30
2022-10-17T19:39:44.355Z,3.45
2022-10-17T19:42:13.293Z,3.15
2022-10-17T19:44:43.991Z,3.15
2022-10-17T19:47:13.041Z,3.10
2022-10-17T19:49:45.377Z,3.00
2022-10-17T19:52:16.706Z,2.70
2022-10-17T19:54:46.390Z,2.50
2022-10-17T19:57:18.028Z,3.70
2022-10-17T19:59:51.290Z,3.42
2022-10-17T20:02:22.694Z,3.05
2022-10-17T20:05:06.357Z,3.42
2022-10-17T20:07:41.009Z,2.40
2022-10-17T20:10:11.027Z,2.83
2022-10-17T20:12:40.277Z,1.83
2022-10-17T20:15:11.990Z,3.35
2022-10-17T20:17:41.217Z,3.75
2022-10-17T20:20:11.512Z,3.58
2022-10-17T20:22:40.550Z,2.42
2022-10-17T20:25:10.225Z,2.35
2022-10-17T20:27:39.189Z,2.83
2022-10-17T20:30:11.385Z,4.13
2022-10-17T20:35:11.255Z,2.08
2022-10-17T20:37:42.734Z,2.67
2022-10-17T20:43:02.657Z,2.85
2022-10-17T20:45:50.405Z,3.30
2022-10-17T20:48:20.705Z,2.60
2022-10-17T20:50:50.446Z,3.70
2022-10-17T20:53:37.528Z,4.13
2022-10-17T20:56:10.071Z,3.70
2022-10-17T21:01:11.660Z,1.63
2022-10-17T21:03:44.034Z,3.53
2022-10-17T21:06:16.389Z,1.83
2022-10-17T21:08:46.282Z,2.08
2022-10-17T21:11:18.799Z,2.50
2022-10-17T21:13:49.669Z,2.88
2022-10-17T21:16:22.112Z,2.65
2022-10-17T21:18:51.318Z,2.95
2022-10-17T21:21:25.007Z,2.65
2022-10-17T21:24:00.772Z,3.30
2022-10-17T21:26:30.482Z,3.20
2022-10-17T21:29:03.214Z,3.60
2022-10-17T21:31:36.098Z,2.65
2022-10-17T21:34:11.177Z,2.30
2022-10-17T21:36:41.072Z,3.40
2022-10-17T21:39:11.650Z,3.03
2022-10-17T21:41:41.311Z,2.80
2022-10-17T21:44:16.143Z,2.05
2022-10-17T21:46:47.209Z,2.70
2022-10-17T21:49:20.920Z,2.55
2022-10-17T21:51:51.283Z,2.63
2022-10-17T21:54:24.129Z,3.88
2022-10-17T21:56:54.180Z,3.35
2022-10-17T21:59:23.268Z,3.92
2022-10-17T22:01:53.701Z,3.63
2022-10-17T22:04:22.795Z,3.63
2022-10-17T22:06:53.473Z,4.13
2022-10-17T22:09:27.340Z,1.90
2022-10-17T22:11:58.121Z,2.70
2022-10-17T22:14:28.958Z,3.03
2022-10-17T22:16:59.414Z,3.33
2022-10-17T22:19:29.237Z,1.85
2022-10-17T22:21:58.439Z,3.03
2022-10-17T22:24:27.500Z,2.95
2022-10-17T22:26:56.595Z,1.70
2022-10-17T22:29:25.663Z,2.55
2022-10-17T22:31:54.618Z,3.53
2022-10-17T22:34:25.007Z,2.85
2022-10-17T22:36:54.038Z,1.98
2022-10-17T22:39:23.405Z,2.78
2022-10-17T22:41:52.466Z,2.83
2022-10-17T22:44:21.468Z,2.33
2022-10-17T22:46:50.886Z,2.30
2022-10-17T22:49:19.957Z,2.72
2022-10-17T22:51:50.424Z,1.30
2022-10-17T22:54:19.639Z,2.95
2022-10-17T22:56:48.698Z,2.13
2022-10-17T22:59:17.854Z,2.80
2022-10-17T23:01:46.850Z,3.03
2022-10-17T23:04:15.836Z,2.45
2022-10-17T23:06:44.937Z,1.52
2022-10-17T23:09:16.020Z,1.98
2022-10-17T23:11:45.061Z,2.35
2022-10-17T23:14:14.341Z,2.33
2022-10-17T23:16:43.497Z,1.73
2022-10-17T23:19:12.688Z,2.58
2022-10-17T23:21:42.083Z,2.60
2022-10-17T23:24:11.183Z,1.45
2022-10-17T23:26:41.632Z,1.27
2022-10-17T23:29:10.771Z,1.92
2022-10-17T23:31:39.776Z,2.60
2022-10-17T23:34:08.956Z,1.02
2022-10-17T23:36:38.648Z,1.90
2022-10-17T23:39:09.154Z,1.60
2022-10-17T23:41:38.156Z,2.10
2022-10-17T23:44:08.493Z,2.47
2022-10-17T23:46:37.468Z,2.40
2022-10-17T23:49:06.923Z,2.70
2022-10-17T23:51:36.173Z,1.45
2022-10-17T23:54:05.561Z,2.33
2022-10-17T23:56:34.482Z,1.98
2022-10-17T23:59:03.776Z,1.45
